createdAt,value
2022-12-24T00:01:04.463Z,11.00
2022-12-24T00:03:31.352Z,11.00
2022-12-24T00:05:58.191Z,10.90
2022-12-24T00:08:24.939Z,10.90
2022-12-24T00:10:53.246Z,10.90
2022-12-24T00:13:20.647Z,10.80
2022-12-24T00:15:47.752Z,10.80
2022-12-24T00:18:14.790Z,10.80
2022-12-24T00:20:41.543Z,10.80
2022-12-24T00:23:08.222Z,10.70
2022-12-24T00:25:34.815Z,10.70
2022-12-24T00:28:01.446Z,10.60
2022-12-24T00:30:28.067Z,10.60
2022-12-24T00:32:55.015Z,10.60
2022-12-24T00:35:21.987Z,10.60
2022-12-24T00:37:49.075Z,10.50
2022-12-24T00:40:16.607Z,10.50
2022-12-24T00:42:43.609Z,10.50
2022-12-24T00:45:11.836Z,10.60
2022-12-24T00:47:38.525Z,10.60
2022-12-24T00:50:05.943Z,10.50
2022-12-24T00:52:32.558Z,10.60
2022-12-24T00:54:59.319Z,10.60
2022-12-24T00:57:25.952Z,10.60
2022-12-24T00:59:52.584Z,10.60
2022-12-24T01:02:19.514Z,10.60
2022-12-24T01:05:04.835Z,10.60
2022-12-24T01:07:31.744Z,10.60
2022-12-24T01:09:58.338Z,10.60
2022-12-24T01:12:25.508Z,10.60
2022-12-24T01:14:52.085Z,10.60
2022-12-24T01:17:18.694Z,10.50
2022-12-24T01:19:45.313Z,10.50
2022-12-24T01:22:11.942Z,10.50
2022-12-24T01:24:41.022Z,10.50
2022-12-24T01:27:07.892Z,10.40
2022-12-24T01:29:34.572Z,10.30
2022-12-24T01:32:01.448Z,10.30
2022-12-24T01:34:28.084Z,10.30
2022-12-24T01:36:54.707Z,10.30
2022-12-24T01:39:21.304Z,10.20
2022-12-24T01:42:06.844Z,10.20
2022-12-24T01:44:37.233Z,10.20
2022-12-24T01:47:21.735Z,10.20
2022-12-24T01:49:53.790Z,10.20
2022-12-24T01:52:26.513Z,10.10
2022-12-24T01:55:01.478Z,10.10
2022-12-24T01:57:33.372Z,10.10
2022-12-24T02:00:04.236Z,10.10
2022-12-24T02:02:33.377Z,10.10
2022-12-24T02:05:16.471Z,10.10
2022-12-24T02:07:43.599Z,10.10
2022-12-24T02:10:12.562Z,10.10
2022-12-24T02:12:40.881Z,10.10
2022-12-24T02:15:11.492Z,10.10
2022-12-24T02:18:09.410Z,10.00
2022-12-24T02:21:06.483Z,10.10
2022-12-24T02:23:58.945Z,10.10
2022-12-24T02:26:40.866Z,10.10
2022-12-24T02:29:32.694Z,10.00
2022-12-24T02:32:12.619Z,10.10
2022-12-24T02:34:47.565Z,10.00
2022-12-24T02:37:23.216Z,10.00
2022-12-24T02:39:59.060Z,10.10
2022-12-24T02:42:31.797Z,10.10
2022-12-24T02:45:03.764Z,10.10
2022-12-24T02:47:34.115Z,10.20
2022-12-24T02:50:03.224Z,10.20
2022-12-24T02:52:39.262Z,10.10
2022-12-24T02:55:20.604Z,10.10
2022-12-24T02:58:18.276Z,10.20
2022-12-24T03:01:16.306Z,10.20
2022-12-24T03:04:20.929Z,10.20
2022-12-24T03:07:05.981Z,10.30
2022-12-24T03:09:50.503Z,10.30
2022-12-24T03:12:24.127Z,10.30
2022-12-24T03:14:51.253Z,10.30
2022-12-24T03:17:19.662Z,10.30
2022-12-24T03:19:47.297Z,10.30
2022-12-24T03:22:15.940Z,10.30
2022-12-24T03:24:42.581Z,10.30
2022-12-24T03:27:11.916Z,10.30
2022-12-24T03:29:40.367Z,10.30
2022-12-24T03:32:07.071Z,10.30
2022-12-24T03:34:33.740Z,10.30
2022-12-24T03:37:00.371Z,10.30
2022-12-24T03:39:26.972Z,10.20
2022-12-24T03:41:53.560Z,10.20
2022-12-24T03:44:20.182Z,10.20
2022-12-24T03:46:46.757Z,10.20
2022-12-24T03:49:13.396Z,10.20
2022-12-24T03:51:39.985Z,10.20
2022-12-24T03:54:06.775Z,10.20
2022-12-24T03:56:33.362Z,10.20
2022-12-24T03:59:00.031Z,10.20
2022-12-24T04:01:26.774Z,10.20
2022-12-24T04:03:54.259Z,10.30
2022-12-24T04:06:20.896Z,10.20
2022-12-24T04:08:47.560Z,10.20
2022-12-24T04:11:15.955Z,10.20
2022-12-24T04:13:43.104Z,10.20
2022-12-24T04:16:13.067Z,10.20
2022-12-24T04:18:40.906Z,10.20
2022-12-24T04:21:09.040Z,10.10
2022-12-24T04:23:37.529Z,10.10
2022-12-24T04:26:06.492Z,10.10
2022-12-24T04:28:33.547Z,10.10
2022-12-24T04:31:02.142Z,10.10
2022-12-24T04:33:28.924Z,10.10
2022-12-24T04:35:58.242Z,10.10
2022-12-24T04:38:24.834Z,10.10
2022-12-24T04:41:03.742Z,10.10
2022-12-24T04:43:30.801Z,10.10
2022-12-24T04:46:04.505Z,10.10
2022-12-24T04:48:31.169Z,10.10
2022-12-24T04:50:57.749Z,10.10
2022-12-24T04:53:24.425Z,10.00
2022-12-24T04:55:50.990Z,10.10
2022-12-24T04:58:17.563Z,10.10
2022-12-24T05:00:44.149Z,10.10
2022-12-24T05:03:10.788Z,10.10
2022-12-24T05:05:37.511Z,10.10
2022-12-24T05:08:04.355Z,10.10
2022-12-24T05:10:30.992Z,10.10
2022-12-24T05:12:57.852Z,10.10
2022-12-24T05:15:24.691Z,10.20
2022-12-24T05:17:51.483Z,10.10
2022-12-24T05:20:18.222Z,10.20
2022-12-24T05:23:03.661Z,10.10
2022-12-24T05:25:54.661Z,10.10
2022-12-24T05:28:21.367Z,10.20
2022-12-24T05:30:47.966Z,10.20
2022-12-24T05:33:14.597Z,10.20
2022-12-24T05:35:41.272Z,10.10
2022-12-24T05:38:07.895Z,10.20
2022-12-24T05:40:34.483Z,10.20
2022-12-24T05:43:01.109Z,10.20
2022-12-24T05:45:28.583Z,10.20
2022-12-24T05:47:55.189Z,10.20
2022-12-24T05:50:21.808Z,10.20
2022-12-24T05:52:48.386Z,10.20
2022-12-24T05:55:15.083Z,10.20
2022-12-24T05:57:41.724Z,10.20
2022-12-24T06:00:09.416Z,10.20
2022-12-24T06:02:36.023Z,10.20
2022-12-24T06:05:02.740Z,10.20
2022-12-24T06:07:29.426Z,10.20
2022-12-24T06:09:56.040Z,10.20
2022-12-24T06:12:22.599Z,10.20
2022-12-24T06:14:49.156Z,10.30
2022-12-24T06:17:15.749Z,10.20
2022-12-24T06:19:42.375Z,10.30
2022-12-24T06:22:09.044Z,10.30
2022-12-24T06:24:35.651Z,10.20
2022-12-24T06:27:02.633Z,10.20
2022-12-24T06:29:29.193Z,10.20
2022-12-24T06:31:55.888Z,10.10
2022-12-24T06:34:22.578Z,10.10
2022-12-24T06:36:49.266Z,10.10
2022-12-24T06:39:15.888Z,10.10
2022-12-24T06:41:42.476Z,10.10
2022-12-24T06:44:09.262Z,10.10
2022-12-24T06:46:35.903Z,10.10
2022-12-24T06:49:02.615Z,10.10
2022-12-24T06:51:29.232Z,10.10
2022-12-24T06:53:55.965Z,10.10
2022-12-24T06:56:22.572Z,10.10
2022-12-24T06:58:49.348Z,10.10
2022-12-24T07:01:19.075Z,10.10
2022-12-24T07:03:46.399Z,10.00
2022-12-24T07:06:27.685Z,10.00
2022-12-24T07:08:54.823Z,10.00
2022-12-24T07:11:22.918Z,10.00
2022-12-24T07:13:49.518Z,10.00
2022-12-24T07:16:17.337Z,10.00
2022-12-24T07:18:44.224Z,9.90
2022-12-24T07:21:10.858Z,9.90
2022-12-24T07:23:37.522Z,9.90
2022-12-24T07:26:05.678Z,9.90
2022-12-24T07:28:32.609Z,9.90
2022-12-24T07:31:00.046Z,9.90
2022-12-24T07:33:27.076Z,9.90
2022-12-24T07:36:08.006Z,9.90
2022-12-24T07:38:35.083Z,9.90
2022-12-24T07:41:01.748Z,9.90
2022-12-24T07:43:28.984Z,9.90
2022-12-24T07:45:57.156Z,9.90
2022-12-24T07:48:24.885Z,9.90
2022-12-24T07:50:52.310Z,9.90
2022-12-24T07:53:19.424Z,9.90
2022-12-24T07:55:46.205Z,9.90
2022-12-24T07:58:12.783Z,9.90
2022-12-24T08:00:39.433Z,9.90
2022-12-24T08:03:06.134Z,9.90
2022-12-24T08:05:36.400Z,9.90
2022-12-24T08:08:03.345Z,10.00
2022-12-24T08:10:29.916Z,10.00
2022-12-24T08:12:56.510Z,10.00
2022-12-24T08:15:23.085Z,10.00
2022-12-24T08:17:49.669Z,10.00
2022-12-24T08:20:17.266Z,10.10
2022-12-24T08:22:43.844Z,10.10
2022-12-24T08:25:10.507Z,10.10
2022-12-24T08:27:37.129Z,10.10
2022-12-24T08:30:05.110Z,10.10
2022-12-24T08:32:31.801Z,10.20
2022-12-24T08:34:58.373Z,10.20
2022-12-24T08:37:25.011Z,10.20
2022-12-24T08:39:51.618Z,10.30
2022-12-24T08:42:18.261Z,10.30
2022-12-24T08:44:45.024Z,10.30
2022-12-24T08:47:11.622Z,10.20
2022-12-24T08:49:39.469Z,10.30
2022-12-24T08:52:06.616Z,10.30
2022-12-24T08:54:33.204Z,10.30
2022-12-24T08:56:59.884Z,10.30
2022-12-24T08:59:26.489Z,10.30
2022-12-24T09:01:53.248Z,10.20
2022-12-24T09:04:20.206Z,10.30
2022-12-24T09:06:46.929Z,10.30
2022-12-24T09:09:13.519Z,10.20
2022-12-24T09:11:40.074Z,10.20
2022-12-24T09:14:06.854Z,10.20
2022-12-24T09:16:33.542Z,10.20
2022-12-24T09:19:00.356Z,10.20
2022-12-24T09:21:27.024Z,10.30
2022-12-24T09:23:53.675Z,10.20
2022-12-24T09:26:26.534Z,10.30
2022-12-24T09:28:53.571Z,10.20
2022-12-24T09:31:21.425Z,10.30
2022-12-24T09:33:50.074Z,10.30
2022-12-24T09:36:17.948Z,10.30
2022-12-24T09:38:45.067Z,10.30
2022-12-24T09:41:31.954Z,10.30
2022-12-24T09:44:15.550Z,10.30
2022-12-24T09:46:46.145Z,10.30
2022-12-24T09:49:22.194Z,10.40
2022-12-24T09:52:02.015Z,10.40
2022-12-24T09:54:32.503Z,10.40
2022-12-24T09:57:05.203Z,10.40
2022-12-24T09:59:42.562Z,10.40
2022-12-24T10:02:15.958Z,10.50
2022-12-24T10:04:44.669Z,10.50
2022-12-24T10:07:37.121Z,10.50
2022-12-24T10:10:23.335Z,10.50
2022-12-24T10:13:25.095Z,10.50
2022-12-24T10:16:09.084Z,10.50
2022-12-24T10:19:10.788Z,10.50
2022-12-24T10:22:12.753Z,10.50
2022-12-24T10:25:03.014Z,10.50
2022-12-24T10:27:35.576Z,10.50
2022-12-24T10:30:16.911Z,10.50
2022-12-24T10:32:45.202Z,10.60
2022-12-24T10:35:36.501Z,10.60
2022-12-24T10:38:04.292Z,10.50
2022-12-24T10:40:46.816Z,10.60
2022-12-24T10:43:23.217Z,10.60
2022-12-24T10:45:59.658Z,10.60
2022-12-24T10:48:30.689Z,10.50
2022-12-24T10:51:07.654Z,10.50
2022-12-24T10:53:38.490Z,10.50
2022-12-24T10:56:08.250Z,10.60
2022-12-24T10:58:35.644Z,10.60
2022-12-24T11:01:02.948Z,10.70
2022-12-24T11:03:32.663Z,10.70
2022-12-24T11:06:06.027Z,10.80
2022-12-24T11:08:34.179Z,10.90
2022-12-24T11:11:07.195Z,10.90
2022-12-24T11:13:43.238Z,11.00
2022-12-24T11:16:26.410Z,11.00
2022-12-24T11:18:56.200Z,10.90
2022-12-24T11:21:29.071Z,11.00
2022-12-24T11:23:58.391Z,11.00
2022-12-24T11:26:28.094Z,11.00
2022-12-24T11:29:16.292Z,11.10
2022-12-24T11:31:45.004Z,11.10
2022-12-24T11:34:42.662Z,11.10
2022-12-24T11:37:16.811Z,11.20
2022-12-24T11:40:01.128Z,11.10
2022-12-24T11:42:37.950Z,11.10
2022-12-24T11:45:20.091Z,11.10
2022-12-24T11:47:46.807Z,11.10
2022-12-24T11:50:37.536Z,11.10
2022-12-24T11:53:04.147Z,11.20
2022-12-24T11:55:50.343Z,11.20
2022-12-24T11:58:38.761Z,11.20
2022-12-24T12:01:24.600Z,11.30
2022-12-24T12:04:20.590Z,11.40
2022-12-24T12:07:00.489Z,11.50
2022-12-24T12:09:31.848Z,11.50
2022-12-24T12:12:47.595Z,11.60
2022-12-24T12:15:19.390Z,11.60
2022-12-24T12:18:00.127Z,11.50
2022-12-24T12:20:42.979Z,11.60
2022-12-24T12:23:19.110Z,11.60
2022-12-24T12:26:11.302Z,11.60
2022-12-24T12:29:00.983Z,11.60
2022-12-24T12:31:47.219Z,11.60
2022-12-24T12:34:20.118Z,11.60
2022-12-24T12:36:53.009Z,11.60
2022-12-24T12:39:19.818Z,11.50
2022-12-24T12:42:15.535Z,11.50
2022-12-24T12:44:49.765Z,11.50
2022-12-24T12:47:31.810Z,11.50
2022-12-24T12:50:30.459Z,11.50
2022-12-24T12:53:36.245Z,11.60
2022-12-24T12:56:25.723Z,11.70
2022-12-24T12:59:02.616Z,11.70
2022-12-24T13:01:47.163Z,11.70
2022-12-24T13:04:55.659Z,11.70
2022-12-24T13:07:47.277Z,11.70
2022-12-24T13:10:25.103Z,11.60
2022-12-24T13:13:03.185Z,11.60
2022-12-24T13:15:37.317Z,11.50
2022-12-24T13:18:10.044Z,11.50
2022-12-24T13:20:45.954Z,11.50
2022-12-24T13:23:17.417Z,11.50
2022-12-24T13:25:46.751Z,11.50
2022-12-24T13:28:22.695Z,11.50
2022-12-24T13:30:53.471Z,11.50
2022-12-24T13:33:38.462Z,11.60
2022-12-24T13:36:19.445Z,11.60
2022-12-24T13:38:59.845Z,11.70
2022-12-24T13:41:42.157Z,11.80
2022-12-24T13:44:16.775Z,11.80
2022-12-24T13:46:56.706Z,11.90
2022-12-24T13:49:44.511Z,11.90
2022-12-24T13:52:11.115Z,12.00
2022-12-24T13:54:40.310Z,11.90
2022-12-24T13:57:41.569Z,11.90
2022-12-24T14:00:28.823Z,11.90
2022-12-24T14:03:24.072Z,12.00
2022-12-24T14:06:22.309Z,11.90
2022-12-24T14:08:52.512Z,11.90
2022-12-24T14:11:22.312Z,11.90
2022-12-24T14:13:48.952Z,11.90
2022-12-24T14:16:25.048Z,11.90
2022-12-24T14:19:15.422Z,11.80
2022-12-24T14:22:04.686Z,11.70
2022-12-24T14:24:37.986Z,11.70
2022-12-24T14:27:37.486Z,11.60
2022-12-24T14:30:04.226Z,11.60
2022-12-24T14:32:39.153Z,11.60
2022-12-24T14:35:27.522Z,11.60
2022-12-24T14:38:15.178Z,11.50
2022-12-24T14:40:54.874Z,11.50
2022-12-24T14:43:51.840Z,11.60
2022-12-24T14:46:43.454Z,11.60
2022-12-24T14:49:34.426Z,11.60
2022-12-24T14:52:37.691Z,11.60
2022-12-24T14:55:29.520Z,11.60
2022-12-24T14:58:35.758Z,11.40
2022-12-24T15:01:18.830Z,11.40
2022-12-24T15:03:45.645Z,11.30
2022-12-24T15:06:14.035Z,11.30
2022-12-24T15:08:45.546Z,11.20
2022-12-24T15:11:17.942Z,11.10
2022-12-24T15:13:49.113Z,11.10
2022-12-24T15:16:27.473Z,11.10
2022-12-24T15:18:58.610Z,11.10
2022-12-24T15:21:41.178Z,11.00
2022-12-24T15:24:26.736Z,11.00
2022-12-24T15:26:53.883Z,10.90
2022-12-24T15:29:26.698Z,10.90
2022-12-24T15:32:01.340Z,10.90
2022-12-24T15:34:38.677Z,10.90
2022-12-24T15:37:29.461Z,10.80
2022-12-24T15:40:08.440Z,10.80
2022-12-24T15:42:35.964Z,10.70
2022-12-24T15:45:08.293Z,10.70
2022-12-24T15:47:44.278Z,10.70
2022-12-24T15:50:22.418Z,10.60
2022-12-24T15:53:19.594Z,10.60
2022-12-24T15:55:41.250Z,10.60
2022-12-24T15:58:25.440Z,10.50
2022-12-24T16:01:00.933Z,10.50
2022-12-24T16:03:27.657Z,10.40
2022-12-24T16:06:12.098Z,10.50
2022-12-24T16:08:40.323Z,10.40
2022-12-24T16:11:19.330Z,10.40
2022-12-24T16:13:57.935Z,10.30
2022-12-24T16:16:34.452Z,10.30
2022-12-24T16:19:02.576Z,10.30
2022-12-24T16:21:41.025Z,10.30
2022-12-24T16:24:22.993Z,10.30
2022-12-24T16:26:50.232Z,10.20
2022-12-24T16:29:22.664Z,10.20
2022-12-24T16:31:49.229Z,10.20
2022-12-24T16:34:17.068Z,10.20
2022-12-24T16:36:45.739Z,10.10
2022-12-24T16:39:23.905Z,10.10
2022-12-24T16:42:29.605Z,10.10
2022-12-24T16:44:56.418Z,10.00
2022-12-24T16:47:27.794Z,10.00
2022-12-24T16:49:54.436Z,10.00
2022-12-24T16:52:25.603Z,9.90
2022-12-24T16:54:52.694Z,10.00
2022-12-24T16:57:19.496Z,9.90
2022-12-24T16:59:46.512Z,9.90
2022-12-24T17:02:16.134Z,9.90
2022-12-24T17:04:43.386Z,9.90
2022-12-24T17:07:14.980Z,9.90
2022-12-24T17:09:41.609Z,9.90
2022-12-24T17:12:08.448Z,9.80
2022-12-24T17:14:35.203Z,9.80
2022-12-24T17:17:01.900Z,9.80
2022-12-24T17:19:28.497Z,9.80
2022-12-24T17:21:55.066Z,9.70
2022-12-24T17:24:21.679Z,9.70
2022-12-24T17:26:48.303Z,9.70
2022-12-24T17:29:14.948Z,9.70
2022-12-24T17:31:42.989Z,9.60
2022-12-24T17:34:10.248Z,9.70
2022-12-24T17:36:36.858Z,9.60
2022-12-24T17:39:03.823Z,9.60
2022-12-24T17:41:30.474Z,9.60
2022-12-24T17:43:58.530Z,9.60
2022-12-24T17:46:25.306Z,9.60
2022-12-24T17:48:52.710Z,9.60
2022-12-24T17:51:22.255Z,9.50
2022-12-24T17:53:49.310Z,9.40
2022-12-24T17:56:17.253Z,9.30
2022-12-24T17:58:45.494Z,9.30
2022-12-24T18:01:14.278Z,9.30
2022-12-24T18:03:41.722Z,9.20
2022-12-24T18:06:10.059Z,9.00
2022-12-24T18:08:37.849Z,9.10
2022-12-24T18:11:15.224Z,9.00
2022-12-24T18:13:42.468Z,9.10
2022-12-24T18:16:27.813Z,9.00
2022-12-24T18:18:54.867Z,9.00
2022-12-24T18:21:24.209Z,9.00
2022-12-24T18:23:52.282Z,9.00
2022-12-24T18:26:19.639Z,9.00
2022-12-24T18:28:47.262Z,9.00
2022-12-24T18:31:18.845Z,8.90
2022-12-24T18:33:47.222Z,9.00
2022-12-24T18:36:14.231Z,9.00
2022-12-24T18:38:40.949Z,8.90
2022-12-24T18:41:19.181Z,9.00
2022-12-24T18:43:45.803Z,9.00
2022-12-24T18:46:17.797Z,9.00
2022-12-24T18:48:44.395Z,8.90
2022-12-24T18:51:11.865Z,8.90
2022-12-24T18:53:38.791Z,9.00
2022-12-24T18:56:15.684Z,9.00
2022-12-24T18:58:43.272Z,9.00
2022-12-24T19:01:21.616Z,9.00
2022-12-24T19:03:49.205Z,9.10
2022-12-24T19:06:17.134Z,9.20
2022-12-24T19:08:57.263Z,9.20
2022-12-24T19:11:25.076Z,9.20
2022-12-24T19:13:52.873Z,9.30
2022-12-24T19:16:19.717Z,9.40
2022-12-24T19:18:46.488Z,9.50
2022-12-24T19:21:15.413Z,9.50
2022-12-24T19:23:42.028Z,9.60
2022-12-24T19:26:10.475Z,9.60
2022-12-24T19:28:37.107Z,9.60
2022-12-24T19:31:09.388Z,9.60
2022-12-24T19:33:43.213Z,9.70
2022-12-24T19:36:13.212Z,9.80
2022-12-24T19:38:40.414Z,9.70
2022-12-24T19:41:12.530Z,9.70
2022-12-24T19:43:45.108Z,9.80
2022-12-24T19:46:14.535Z,9.70
2022-12-24T19:48:42.114Z,9.80
2022-12-24T19:51:11.162Z,9.80
2022-12-24T19:53:38.561Z,9.80
2022-12-24T19:56:06.104Z,9.80
2022-12-24T19:58:32.833Z,9.80
2022-12-24T20:01:15.182Z,9.80
2022-12-24T20:03:43.052Z,9.80
2022-12-24T20:06:09.835Z,9.80
2022-12-24T20:08:37.678Z,9.80
2022-12-24T20:11:09.864Z,9.90
2022-12-24T20:13:38.359Z,9.90
2022-12-24T20:16:07.283Z,9.80
2022-12-24T20:18:34.196Z,9.80
2022-12-24T20:21:02.443Z,9.80
2022-12-24T20:23:29.505Z,9.80
2022-12-24T20:25:58.704Z,9.80
2022-12-24T20:28:29.494Z,9.80
2022-12-24T20:30:56.363Z,9.80
2022-12-24T20:33:23.395Z,9.80
2022-12-24T20:35:50.180Z,9.80
2022-12-24T20:38:17.071Z,9.80
2022-12-24T20:40:45.373Z,9.70
2022-12-24T20:43:12.836Z,9.70
2022-12-24T20:45:39.784Z,9.70
2022-12-24T20:48:07.139Z,9.70
2022-12-24T20:50:33.960Z,9.70
2022-12-24T20:53:00.572Z,9.60
2022-12-24T20:55:27.384Z,9.50
2022-12-24T20:57:53.949Z,9.50
2022-12-24T21:00:21.086Z,9.50
2022-12-24T21:02:47.843Z,9.50
2022-12-24T21:05:15.202Z,9.50
2022-12-24T21:07:43.428Z,9.50
2022-12-24T21:10:12.325Z,9.60
2022-12-24T21:12:48.814Z,9.60
2022-12-24T21:15:24.801Z,9.50
2022-12-24T21:17:52.138Z,9.50
2022-12-24T21:20:18.961Z,9.60
2022-12-24T21:22:45.591Z,9.50
2022-12-24T21:25:12.791Z,9.50
2022-12-24T21:27:39.634Z,9.60
2022-12-24T21:30:10.288Z,9.60
2022-12-24T21:32:36.984Z,9.60
2022-12-24T21:35:04.439Z,9.70
2022-12-24T21:37:31.098Z,9.70
2022-12-24T21:39:57.757Z,9.70
2022-12-24T21:42:25.352Z,9.70
2022-12-24T21:44:51.958Z,9.80
2022-12-24T21:47:18.596Z,9.80
2022-12-24T21:50:03.792Z,9.80
2022-12-24T21:52:30.390Z,9.70
2022-12-24T21:54:57.173Z,9.70
2022-12-24T21:57:42.230Z,9.70
2022-12-24T22:00:21.601Z,9.70
2022-12-24T22:02:54.263Z,9.70
2022-12-24T22:05:21.487Z,9.70
2022-12-24T22:08:07.143Z,9.70
2022-12-24T22:10:52.613Z,9.70
2022-12-24T22:13:19.498Z,9.70
2022-12-24T22:15:48.734Z,9.60
2022-12-24T22:18:17.057Z,9.60
2022-12-24T22:20:45.318Z,9.60
2022-12-24T22:23:13.231Z,9.60
2022-12-24T22:25:40.796Z,9.70
2022-12-24T22:28:07.653Z,9.60
2022-12-24T22:30:39.499Z,9.70
2022-12-24T22:33:07.378Z,9.60
2022-12-24T22:35:36.890Z,9.60
2022-12-24T22:38:04.236Z,9.60
2022-12-24T22:40:30.826Z,9.60
2022-12-24T22:42:57.439Z,9.60
2022-12-24T22:45:24.129Z,9.60
2022-12-24T22:47:50.727Z,9.60
2022-12-24T22:50:17.416Z,9.60
2022-12-24T22:52:44.058Z,9.50
2022-12-24T22:55:10.682Z,9.60
2022-12-24T22:57:37.315Z,9.60
2022-12-24T23:00:10.978Z,9.50
2022-12-24T23:02:38.160Z,9.50
2022-12-24T23:05:05.214Z,9.50
2022-12-24T23:07:31.821Z,9.60
2022-12-24T23:09:59.355Z,9.60
2022-12-24T23:12:55.315Z,9.60
2022-12-24T23:15:21.869Z,9.60
2022-12-24T23:17:49.828Z,9.60
2022-12-24T23:20:16.509Z,9.50
2022-12-24T23:22:43.080Z,9.40
2022-12-24T23:25:09.969Z,9.40
2022-12-24T23:27:36.649Z,9.30
2022-12-24T23:30:03.734Z,9.20
2022-12-24T23:32:30.438Z,9.20
2022-12-24T23:34:57.000Z,9.10
2022-12-24T23:37:26.924Z,9.10
2022-12-24T23:39:56.282Z,9.10
2022-12-24T23:42:22.902Z,9.00
2022-12-24T23:44:51.232Z,9.10
2022-12-24T23:47:18.730Z,9.10
2022-12-24T23:49:45.388Z,9.00
2022-12-24T23:52:12.013Z,9.00
2022-12-24T23:54:38.594Z,9.00
2022-12-24T23:57:05.209Z,9.00
2022-12-24T23:59:35.109Z,8.90
